Time;durP1;ratioP1;P1;durP2;ratioP2;P2;SDS_P1;SDS_P2;PMS_P1;PMS_P2;Temp;Humidity;BMP_temperature;BMP_pressure;BME280_temperature;BME280_humidity;BME280_pressure;Samples;Min_cycle;Max_cycle;Signal;HPM_P1;HPM_P2
2021/12/17 00:04:37;;;;;;;43.25;25.42;;;;;;;2.85;100.00;101652.66;5067768;28;20036;-66
2021/12/17 00:07:04;;;;;;;41.83;23.23;;;;;;;2.78;100.00;101643.22;5055226;28;20031;-65
2021/12/17 00:09:29;;;;;;;41.33;23.05;;;;;;;2.76;100.00;101637.09;5071182;28;20078;-66
2021/12/17 00:11:55;;;;;;;38.17;22.17;;;;;;;2.71;100.00;101644.34;5061955;28;20483;-66
2021/12/17 00:14:29;;;;;;;42.00;23.60;;;;;;;2.61;100.00;101627.03;5067233;28;20024;-65
2021/12/17 00:16:59;;;;;;;40.92;22.85;;;;;;;2.63;100.00;101633.13;5058634;28;20412;-66
2021/12/17 00:49:43;;;;;;;44.97;24.58;;;;;;;2.45;100.00;101617.88;5049717;28;20040;-65
2021/12/17 00:52:08;;;;;;;41.92;24.13;;;;;;;2.48;100.00;101623.09;5056101;28;20033;-65
2021/12/17 00:54:41;;;;;;;43.00;23.73;;;;;;;2.49;100.00;101630.09;5069978;28;20033;-65
2021/12/17 00:57:12;;;;;;;44.70;23.95;;;;;;;2.54;100.00;101631.66;5062231;28;20420;-65
2021/12/17 00:59:39;;;;;;;42.78;25.20;;;;;;;2.55;100.00;101617.53;5050575;28;20032;-65
2021/12/17 01:02:08;;;;;;;40.97;23.60;;;;;;;2.70;100.00;101626.72;5055026;28;20076;-66
2021/12/17 01:04:37;;;;;;;39.28;23.52;;;;;;;2.73;100.00;101616.88;5065275;28;20035;-65
2021/12/17 01:07:04;;;;;;;42.05;23.83;;;;;;;2.79;100.00;101621.97;5064425;28;20440;-65
2021/12/17 01:09:29;;;;;;;43.47;24.65;;;;;;;2.80;100.00;101613.09;5051168;28;20025;-65
2021/12/17 01:11:58;;;;;;;40.50;23.05;;;;;;;2.85;100.00;101624.41;5053850;28;20025;-66
2021/12/17 01:14:25;;;;;;;39.25;23.67;;;;;;;2.83;100.00;101604.19;5050996;28;20161;-65
2021/12/17 01:16:52;;;;;;;41.72;23.55;;;;;;;3.06;100.00;101609.53;5051250;28;20029;-65
2021/12/17 01:24:48;;;;;;;32.45;20.25;;;;;;;3.05;100.00;101613.94;5062297;28;20411;-66
2021/12/17 01:35:30;;;;;;;34.25;19.45;;;;;;;3.10;100.00;101584.63;5071188;28;19923;-65
2021/12/17 01:43:12;;;;;;;33.83;19.85;;;;;;;3.15;100.00;101578.22;5070968;28;20071;-65
2021/12/17 01:45:39;;;;;;;31.65;20.38;;;;;;;3.20;100.00;101586.00;5070587;28;20028;-65
2021/12/17 01:48:10;;;;;;;34.92;20.83;;;;;;;3.20;100.00;101578.94;5066701;28;20036;-65
2021/12/17 01:56:31;;;;;;;32.13;19.27;;;;;;;3.31;100.00;101578.50;5050671;28;20036;-65
2021/12/17 02:01:42;;;;;;;35.25;20.58;;;;;;;3.30;100.00;101560.88;5052957;28;20039;-65
2021/12/17 02:04:07;;;;;;;29.55;18.65;;;;;;;3.30;100.00;101574.13;5070136;28;20103;-65
2021/12/17 02:06:36;;;;;;;33.92;20.50;;;;;;;3.34;100.00;101567.78;5064830;28;20036;-65
2021/12/17 02:09:11;;;;;;;27.35;16.80;;;;;;;3.36;100.00;101565.94;5061735;28;20456;-65
2021/12/17 02:12:10;;;;;;;31.00;18.70;;;;;;;3.36;100.00;101560.66;5048660;28;20488;-65
2021/12/17 02:33:47;;;;;;;29.23;18.25;;;;;;;2.94;100.00;101525.16;5036811;28;20064;-65
2021/12/17 02:36:16;;;;;;;27.77;16.63;;;;;;;2.87;100.00;101511.25;5049218;28;20033;-65
2021/12/17 02:38:42;;;;;;;26.23;16.83;;;;;;;2.83;100.00;101519.41;5048920;28;20028;-65
2021/12/17 02:46:36;;;;;;;27.70;16.02;;;;;;;2.72;100.00;101530.41;5052484;28;20047;-65
2021/12/17 02:49:02;;;;;;;28.10;17.05;;;;;;;2.73;100.00;101526.81;5048056;28;20396;-65
2021/12/17 02:51:27;;;;;;;28.75;16.08;;;;;;;2.77;100.00;101532.88;5050820;28;20055;-65
2021/12/17 02:53:54;;;;;;;27.42;16.20;;;;;;;2.77;100.00;101527.59;5051100;28;20121;-65
2021/12/17 02:56:21;;;;;;;23.60;15.30;;;;;;;2.74;100.00;101528.53;5048918;28;20033;-65
2021/12/17 02:58:47;;;;;;;25.08;15.00;;;;;;;2.75;100.00;101540.88;5049165;28;20040;-65
2021/12/17 03:01:14;;;;;;;28.33;15.25;;;;;;;2.73;100.00;101533.88;5056605;28;20497;-65
2021/12/17 03:03:43;;;;;;;25.13;15.25;;;;;;;2.74;100.00;101543.59;5049141;28;20029;-65
2021/12/17 03:06:09;;;;;;;23.30;14.63;;;;;;;2.72;100.00;101550.72;5050446;28;20048;-65
2021/12/17 03:08:36;;;;;;;22.83;13.70;;;;;;;2.70;100.00;101548.13;5049694;28;20730;-65
2021/12/17 03:11:02;;;;;;;22.83;14.65;;;;;;;2.74;100.00;101540.94;5048798;28;20033;-65
2021/12/17 03:13:30;;;;;;;22.80;14.65;;;;;;;2.71;100.00;101530.44;5051656;28;20021;-65
2021/12/17 03:16:01;;;;;;;21.77;14.15;;;;;;;2.80;100.00;101535.41;5052359;28;20534;-65
2021/12/17 03:23:55;;;;;;;20.75;13.63;;;;;;;2.80;100.00;101548.66;5073006;28;20562;-65
2021/12/17 03:26:23;;;;;;;22.40;13.70;;;;;;;2.80;100.00;101553.97;5057412;28;20124;-65
2021/12/17 03:29:02;;;;;;;20.65;13.80;;;;;;;2.76;100.00;101544.38;5066382;28;20045;-65
2021/12/17 03:31:29;;;;;;;21.27;13.23;;;;;;;2.77;100.00;101552.25;5054517;28;20452;-66
2021/12/17 03:34:04;;;;;;;20.90;12.98;;;;;;;2.71;100.00;101551.63;5073079;28;20032;-65
2021/12/17 03:36:31;;;;;;;17.52;11.43;;;;;;;2.64;100.00;101545.69;5062232;28;20519;-65
2021/12/17 03:38:57;;;;;;;20.02;13.02;;;;;;;2.58;100.00;101547.69;5051654;28;20036;-65
2021/12/17 03:41:34;;;;;;;19.85;12.23;;;;;;;2.54;100.00;101544.28;5052713;28;20029;-65
2021/12/17 03:44:00;;;;;;;20.83;12.05;;;;;;;2.42;100.00;101543.88;5072332;28;20055;-65
2021/12/17 03:46:26;;;;;;;18.90;11.77;;;;;;;2.38;100.00;101554.56;5071883;28;20036;-64
2021/12/17 03:48:51;;;;;;;20.23;11.98;;;;;;;2.18;100.00;101530.56;5056339;28;20028;-65
2021/12/17 03:51:19;;;;;;;18.90;12.07;;;;;;;2.26;100.00;101548.84;5051711;28;20491;-65
2021/12/17 03:53:48;;;;;;;18.80;12.20;;;;;;;2.23;100.00;101548.94;5051877;28;20090;-65
2021/12/17 03:56:14;;;;;;;18.13;11.38;;;;;;;2.20;100.00;101544.59;5051940;28;20045;-65
2021/12/17 03:58:39;;;;;;;21.52;13.30;;;;;;;2.21;100.00;101559.56;5051772;28;20059;-65
2021/12/17 04:01:05;;;;;;;19.38;11.77;;;;;;;2.13;100.00;101556.31;5067947;28;20483;-65
2021/12/17 04:03:31;;;;;;;22.50;12.98;;;;;;;2.10;100.00;101564.34;5070274;28;20028;-65
2021/12/17 04:05:57;;;;;;;22.00;12.20;;;;;;;2.10;100.00;101559.06;5054553;28;20033;-65
2021/12/17 04:08:23;;;;;;;21.48;12.85;;;;;;;2.09;100.00;101552.03;5051467;28;20021;-65
2021/12/17 04:10:51;;;;;;;20.00;12.98;;;;;;;2.15;100.00;101562.44;5051516;28;20021;-65
2021/12/17 04:15:55;;;;;;;20.38;12.38;;;;;;;2.19;100.00;101553.44;5071643;28;20484;-65
2021/12/17 04:18:20;;;;;;;20.55;11.90;;;;;;;2.20;100.00;101536.66;5070039;28;20064;-66
2021/12/17 04:20:46;;;;;;;23.20;14.23;;;;;;;2.26;100.00;101543.53;5067320;28;20099;-65
2021/12/17 04:23:11;;;;;;;24.90;14.20;;;;;;;2.29;100.00;101560.16;5065057;28;20619;-65
2021/12/17 04:25:37;;;;;;;22.17;13.07;;;;;;;2.21;100.00;101541.06;5071472;28;20036;-64
2021/12/17 04:28:03;;;;;;;22.90;13.38;;;;;;;2.25;100.00;101555.03;5071215;28;20076;-65
2021/12/17 04:30:30;;;;;;;21.58;13.13;;;;;;;2.24;100.00;101561.25;5071284;28;20095;-65
2021/12/17 04:32:55;;;;;;;20.25;12.35;;;;;;;2.24;100.00;101555.94;5071746;28;20085;-65
2021/12/17 04:35:21;;;;;;;23.17;13.98;;;;;;;2.21;100.00;101554.28;5065888;28;20028;-65
2021/12/17 04:37:47;;;;;;;23.08;13.27;;;;;;;2.18;100.00;101551.75;5059769;28;20120;-65
2021/12/17 04:40:13;;;;;;;20.85;12.35;;;;;;;2.13;100.00;101539.59;5051895;28;20032;-65
2021/12/17 04:45:27;;;;;;;20.42;12.18;;;;;;;1.99;100.00;101525.94;5047787;28;20035;-65
2021/12/17 04:58:50;;;;;;;17.92;11.40;;;;;;;1.88;100.00;101530.72;5051354;28;20431;-65
2021/12/17 05:01:16;;;;;;;20.08;11.90;;;;;;;1.83;100.00;101536.16;5050656;28;20037;-64
2021/12/17 05:03:42;;;;;;;21.52;12.23;;;;;;;1.82;100.00;101547.66;5051473;28;20024;-65
2021/12/17 05:06:07;;;;;;;19.95;11.35;;;;;;;1.79;100.00;101537.19;5051879;28;20029;-65
2021/12/17 05:08:34;;;;;;;17.58;11.35;;;;;;;1.73;100.00;101526.81;5065438;28;20386;-64
2021/12/17 05:11:19;;;;;;;20.23;12.05;;;;;;;1.76;100.00;101529.34;5054220;28;20024;-65
2021/12/17 05:19:43;;;;;;;23.60;11.25;;;;;;;1.70;100.00;101533.97;5071272;28;20038;-65
2021/12/17 05:22:11;;;;;;;19.33;11.93;;;;;;;1.78;100.00;101545.16;5054023;28;20110;-65
2021/12/17 05:24:36;;;;;;;17.13;10.45;;;;;;;1.74;100.00;101531.16;5050033;28;20064;-64
2021/12/17 05:27:02;;;;;;;19.45;11.30;;;;;;;1.75;100.00;101532.03;5050744;28;20077;-65
2021/12/17 05:29:28;;;;;;;18.33;10.73;;;;;;;1.77;100.00;101541.66;5053117;28;20025;-64
2021/12/17 05:31:53;;;;;;;18.95;10.73;;;;;;;1.80;100.00;101540.69;5050366;28;20033;-65
2021/12/17 05:34:19;;;;;;;18.40;10.40;;;;;;;1.76;100.00;101539.06;5064458;28;20387;-65
2021/12/17 05:36:44;;;;;;;20.35;11.38;;;;;;;1.72;100.00;101527.72;5062927;28;20031;-65
2021/12/17 05:39:10;;;;;;;19.13;11.30;;;;;;;1.74;100.00;101547.03;5062645;28;20037;-65
2021/12/17 05:41:35;;;;;;;18.10;10.73;;;;;;;1.70;100.00;101537.47;5049958;28;20040;-65
2021/12/17 05:44:01;;;;;;;20.50;10.75;;;;;;;1.70;100.00;101540.13;5050991;28;20024;-64
2021/12/17 05:46:48;;;;;;;17.60;9.88;;;;;;;1.70;100.00;101549.81;5055789;28;20028;-64
2021/12/17 05:49:11;;;;;;;20.52;10.50;;;;;;;1.65;100.00;101544.69;5070686;28;20111;-64
2021/12/17 05:51:37;;;;;;;18.85;10.77;;;;;;;1.61;100.00;101540.41;5053253;28;20506;-64
2021/12/17 05:54:03;;;;;;;16.63;10.55;;;;;;;1.63;100.00;101549.16;5067047;28;20024;-65
2021/12/17 05:56:28;;;;;;;17.50;10.40;;;;;;;1.61;100.00;101544.84;5062436;28;20045;-64
2021/12/17 05:58:55;;;;;;;14.63;9.98;;;;;;;1.55;100.00;101543.25;5050595;28;20116;-64
2021/12/17 06:01:21;;;;;;;18.30;10.38;;;;;;;1.55;100.00;101552.97;5048861;28;20436;-64
2021/12/17 06:03:46;;;;;;;17.30;10.07;;;;;;;1.48;100.00;101538.22;5063941;28;20073;-65
2021/12/17 06:06:12;;;;;;;20.30;10.95;;;;;;;1.45;100.00;101541.81;5070479;28;20034;-65
2021/12/17 06:08:37;;;;;;;19.15;10.98;;;;;;;1.46;100.00;101543.56;5065896;28;20035;-65
2021/12/17 06:11:02;;;;;;;23.80;10.98;;;;;;;1.39;100.00;101541.16;5049138;28;20038;-65
2021/12/17 06:13:28;;;;;;;20.58;11.32;;;;;;;1.36;100.00;101538.59;5050274;28;20025;-65
2021/12/17 06:15:53;;;;;;;19.08;11.00;;;;;;;1.26;100.00;101542.44;5050071;28;20025;-64
2021/12/17 06:18:19;;;;;;;20.23;12.77;;;;;;;1.23;100.00;101542.53;5050433;28;20039;-64
2021/12/17 06:20:44;;;;;;;19.15;11.20;;;;;;;1.16;100.00;101544.47;5062027;28;20391;-65
2021/12/17 06:23:10;;;;;;;20.17;11.23;;;;;;;1.18;100.00;101547.94;5054499;28;20544;-65
2021/12/17 06:25:35;;;;;;;18.95;12.55;;;;;;;1.20;100.00;101558.47;5068975;28;20036;-64
2021/12/17 06:28:01;;;;;;;24.00;12.27;;;;;;;1.19;100.00;101573.44;5069882;28;20053;-64
2021/12/17 06:30:26;;;;;;;22.08;12.18;;;;;;;1.17;100.00;101574.41;5069778;28;20035;-64
2021/12/17 06:32:52;;;;;;;35.95;17.25;;;;;;;1.21;100.00;101582.22;5069716;28;20479;-64
2021/12/17 06:35:18;;;;;;;32.50;15.95;;;;;;;1.22;100.00;101586.56;5069928;28;20059;-64
2021/12/17 06:37:44;;;;;;;27.73;14.02;;;;;;;1.24;100.00;101582.13;5059780;28;20060;-64
2021/12/17 06:40:10;;;;;;;23.60;13.18;;;;;;;1.29;100.00;101581.97;5055156;28;20036;-64
2021/12/17 06:42:36;;;;;;;24.95;13.60;;;;;;;1.33;100.00;101581.84;5065400;28;20025;-64
2021/12/17 06:45:06;;;;;;;27.10;14.68;;;;;;;1.40;100.00;101591.31;5049635;28;20098;-65
2021/12/17 06:47:34;;;;;;;25.88;14.90;;;;;;;1.43;100.00;101580.66;5052470;28;20083;-64
2021/12/17 06:55:52;;;;;;;25.73;15.02;;;;;;;1.57;100.00;101598.72;5050883;28;20051;-65
2021/12/17 07:07:06;;;;;;;30.53;15.80;;;;;;;1.78;100.00;101617.41;5029583;28;20080;-65
2021/12/17 07:17:22;;;;;;;26.40;14.20;;;;;;;1.97;100.00;101625.66;5054341;28;20099;-65
2021/12/17 07:32:46;;;;;;;26.20;14.25;;;;;;;2.14;100.00;101644.50;5058528;28;20036;-65
2021/12/17 07:35:26;;;;;;;19.98;11.82;;;;;;;2.22;100.00;101643.34;5069606;28;20119;-64
2021/12/17 07:40:37;;;;;;;21.17;12.57;;;;;;;2.28;100.00;101640.50;5049610;28;20098;-64
2021/12/17 07:43:10;;;;;;;26.30;14.32;;;;;;;2.34;100.00;101644.72;5049310;28;20052;-65
2021/12/17 07:45:36;;;;;;;23.88;13.45;;;;;;;2.34;100.00;101629.72;5049174;28;20037;-65
2021/12/17 07:48:01;;;;;;;23.90;12.27;;;;;;;2.35;100.00;101626.13;5049175;28;20033;-65
2021/12/17 07:50:27;;;;;;;23.05;12.23;;;;;;;2.43;100.00;101634.66;5054255;28;20100;-64
2021/12/17 07:52:52;;;;;;;26.50;12.70;;;;;;;2.49;100.00;101640.69;5049075;28;20616;-65
2021/12/17 07:55:18;;;;;;;23.92;13.77;;;;;;;2.55;100.00;101638.72;5051160;28;20024;-65
2021/12/17 07:57:43;;;;;;;23.27;13.70;;;;;;;2.54;100.00;101638.75;5049636;28;20480;-65
2021/12/17 08:00:09;;;;;;;35.33;15.43;;;;;;;2.57;100.00;101646.59;5049104;28;20040;-66
2021/12/17 08:02:34;;;;;;;30.23;16.23;;;;;;;2.68;100.00;101652.41;5049049;28;20064;-65
2021/12/17 08:05:00;;;;;;;34.50;16.00;;;;;;;2.72;100.00;101661.97;5049023;28;20074;-66
2021/12/17 08:07:26;;;;;;;37.58;17.88;;;;;;;2.74;100.00;101653.03;5062585;28;20074;-65
2021/12/17 08:09:51;;;;;;;33.05;16.60;;;;;;;2.81;100.00;101659.00;5072133;28;20105;-65
2021/12/17 08:12:17;;;;;;;34.25;15.75;;;;;;;2.79;100.00;101658.16;5060494;28;20105;-65
2021/12/17 08:14:43;;;;;;;30.05;15.13;;;;;;;2.91;100.00;101671.88;5058260;28;20391;-65
2021/12/17 08:29:53;;;;;;;33.38;14.65;;;;;;;3.31;100.00;101637.69;5059539;28;20373;-66
2021/12/17 08:32:19;;;;;;;29.25;14.85;;;;;;;3.48;100.00;101640.59;5072274;28;20730;-65
2021/12/17 08:34:45;;;;;;;30.73;14.25;;;;;;;3.58;100.00;101635.81;5066931;28;20032;-66
2021/12/17 08:37:10;;;;;;;34.53;15.63;;;;;;;3.66;100.00;101633.72;5072188;28;20036;-65
2021/12/17 08:39:38;;;;;;;35.42;17.08;;;;;;;3.68;100.00;101640.69;5070427;28;20391;-65
2021/12/17 08:42:04;;;;;;;33.15;16.83;;;;;;;3.71;100.00;101648.53;5061582;28;20029;-66
2021/12/17 08:44:29;;;;;;;29.15;15.77;;;;;;;3.74;100.00;101652.88;5059735;28;20036;-65
2021/12/17 08:46:55;;;;;;;23.23;14.43;;;;;;;3.78;100.00;101636.75;5060617;28;20383;-66
2021/12/17 08:49:21;;;;;;;22.40;13.13;;;;;;;3.88;100.00;101639.91;5053371;28;20075;-65
2021/12/17 08:51:46;;;;;;;18.83;11.15;;;;;;;3.98;100.00;101638.63;5057116;28;20037;-65
2021/12/17 08:54:12;;;;;;;23.40;13.43;;;;;;;4.02;100.00;101645.53;5054518;28;20463;-66
2021/12/17 08:56:44;;;;;;;24.25;13.80;;;;;;;4.09;100.00;101644.34;5059530;28;20024;-65
2021/12/17 08:59:09;;;;;;;20.40;11.75;;;;;;;4.12;100.00;101638.94;5057285;28;20037;-65
2021/12/17 09:01:36;;;;;;;19.02;11.75;;;;;;;4.05;100.00;101624.19;5058748;28;20578;-65
2021/12/17 09:04:02;;;;;;;22.38;11.60;;;;;;;4.13;100.00;101624.75;5071538;28;20035;-65
2021/12/17 09:06:28;;;;;;;18.95;11.13;;;;;;;4.22;100.00;101621.69;5071590;28;20438;-65
2021/12/17 09:08:58;;;;;;;21.55;12.55;;;;;;;4.27;100.00;101617.06;5063468;28;20028;-65
2021/12/17 09:11:28;;;;;;;24.38;13.07;;;;;;;4.31;100.00;101603.59;5071348;28;20120;-65
2021/12/17 09:13:56;;;;;;;31.17;14.05;;;;;;;4.31;100.00;101605.38;5053729;28;20025;-65
2021/12/17 09:16:22;;;;;;;18.98;11.40;;;;;;;4.33;100.00;101612.34;5051512;28;20057;-65
2021/12/17 09:18:49;;;;;;;19.42;11.55;;;;;;;4.37;100.00;101616.63;5067237;28;20072;-65
2021/12/17 09:21:16;;;;;;;24.75;12.00;;;;;;;4.40;100.00;101615.63;5068346;28;20090;-65
2021/12/17 09:23:42;;;;;;;18.45;10.73;;;;;;;4.43;100.00;101624.34;5056654;28;20024;-65
2021/12/17 09:26:10;;;;;;;19.10;10.48;;;;;;;4.46;100.00;101618.88;5068069;28;20106;-65
2021/12/17 09:28:35;;;;;;;19.83;11.93;;;;;;;4.46;100.00;101608.25;5066382;28;20033;-65
2021/12/17 09:31:01;;;;;;;17.75;9.77;;;;;;;4.47;100.00;101595.84;5061343;28;20438;-65
2021/12/17 09:33:26;;;;;;;13.63;7.88;;;;;;;4.57;100.00;101600.72;5058782;28;20036;-65
2021/12/17 09:35:52;;;;;;;13.32;7.00;;;;;;;4.54;100.00;101581.38;5050860;28;20044;-65
2021/12/17 09:38:19;;;;;;;15.10;8.07;;;;;;;4.62;100.00;101600.50;5068447;28;20403;-65
2021/12/17 09:40:45;;;;;;;18.52;9.05;;;;;;;4.75;100.00;101594.59;5055684;28;20025;-65
2021/12/17 09:43:14;;;;;;;14.32;8.60;;;;;;;4.78;99.94;101589.13;5048338;28;20029;-65
2021/12/17 09:45:40;;;;;;;17.67;9.15;;;;;;;4.81;99.66;101588.16;5049348;28;20039;-65
2021/12/17 09:48:05;;;;;;;16.85;9.13;;;;;;;5.10;96.79;101592.16;5051315;28;20036;-64
2021/12/17 09:50:31;;;;;;;16.45;8.00;;;;;;;5.12;96.46;101592.97;5070397;28;20027;-65
2021/12/17 09:52:57;;;;;;;14.63;7.80;;;;;;;5.23;95.30;101586.25;5066389;28;20079;-65
2021/12/17 09:55:22;;;;;;;13.10;7.53;;;;;;;5.28;95.04;101588.66;5050778;28;20028;-65
2021/12/17 09:57:48;;;;;;;18.88;8.55;;;;;;;5.29;93.78;101583.28;5050585;28;20064;-65
2021/12/17 10:00:19;;;;;;;13.55;8.05;;;;;;;5.32;93.75;101585.78;5052756;28;20044;-65
2021/12/17 10:02:45;;;;;;;15.55;7.03;;;;;;;5.34;93.79;101585.72;5058780;28;20383;-65
2021/12/17 10:05:23;;;;;;;15.85;8.50;;;;;;;5.38;93.48;101585.50;5051357;28;20652;-65
2021/12/17 10:07:54;;;;;;;14.95;8.30;;;;;;;5.40;93.32;101585.44;5070392;28;20049;-65
2021/12/17 10:10:20;;;;;;;13.07;7.78;;;;;;;5.45;93.07;101594.94;5070285;28;20119;-65
2021/12/17 10:12:46;;;;;;;14.75;8.85;;;;;;;5.51;92.78;101586.66;5070364;28;20158;-65
2021/12/17 10:15:17;;;;;;;14.82;8.77;;;;;;;5.53;92.78;101584.81;5052144;28;20107;-65
2021/12/17 10:17:51;;;;;;;13.20;8.43;;;;;;;5.57;92.57;101585.50;5057181;28;20079;-65
2021/12/17 10:20:18;;;;;;;12.88;8.40;;;;;;;5.59;92.99;101587.19;5067976;28;20040;-65
2021/12/17 10:22:45;;;;;;;15.90;8.40;;;;;;;5.64;92.11;101573.66;5070186;28;20039;-65
2021/12/17 10:25:11;;;;;;;14.30;7.97;;;;;;;5.66;92.18;101570.00;5070319;28;20119;-65
2021/12/17 10:27:40;;;;;;;13.98;7.93;;;;;;;5.71;92.22;101578.59;5060742;28;20044;-66
2021/12/17 10:30:21;;;;;;;16.27;8.15;;;;;;;5.77;91.86;101575.66;5069019;28;20157;-66
2021/12/17 10:32:49;;;;;;;13.93;8.68;;;;;;;5.83;91.52;101580.72;5068362;28;20029;-65
2021/12/17 10:35:21;;;;;;;15.00;7.18;;;;;;;5.83;91.28;101570.06;5069191;28;20024;-66
2021/12/17 10:37:55;;;;;;;13.68;7.82;;;;;;;5.91;90.88;101581.22;5069157;28;20028;-65
2021/12/17 10:40:27;;;;;;;14.40;7.57;;;;;;;5.93;90.88;101573.16;5047723;28;20033;-65
2021/12/17 10:43:05;;;;;;;16.00;9.13;;;;;;;6.10;88.83;101570.53;5067084;28;20028;-66
2021/12/17 10:45:48;;;;;;;17.55;8.27;;;;;;;6.16;88.00;101560.41;5062131;28;20457;-65
2021/12/17 10:50:59;;;;;;;12.75;7.20;;;;;;;6.26;88.74;101551.00;5057035;28;20040;-65
2021/12/17 10:53:25;;;;;;;15.30;7.95;;;;;;;6.36;87.07;101544.28;5048885;28;20060;-66
2021/12/17 10:55:52;;;;;;;14.10;7.95;;;;;;;6.45;84.94;101538.47;5064381;28;20029;-66
2021/12/17 10:58:18;;;;;;;14.85;7.47;;;;;;;6.47;84.29;101536.59;5058641;28;20100;-66
2021/12/17 11:01:06;;;;;;;14.93;7.50;;;;;;;6.65;82.24;101546.28;5068650;28;20037;-66
2021/12/17 11:03:41;;;;;;;12.70;6.63;;;;;;;6.70;82.22;101551.41;5068431;28;20135;-66
2021/12/17 11:06:07;;;;;;;11.43;6.93;;;;;;;6.74;82.05;101545.00;5064882;28;20036;-66
2021/12/17 11:08:37;;;;;;;9.35;5.90;;;;;;;6.78;81.34;101542.06;5049737;28;20047;-66
2021/12/17 11:11:12;;;;;;;12.52;5.50;;;;;;;6.82;80.90;101527.63;5048708;28;20056;-67
2021/12/17 11:13:57;;;;;;;8.57;4.53;;;;;;;6.90;78.59;101532.53;5049468;28;20415;-67
2021/12/17 11:16:26;;;;;;;9.88;3.95;;;;;;;6.98;77.11;101535.66;5067403;28;20035;-67
2021/12/17 11:18:53;;;;;;;9.73;4.15;;;;;;;6.97;74.62;101526.78;5068512;28;20024;-66
2021/12/17 11:21:19;;;;;;;7.72;3.03;;;;;;;7.07;72.89;101524.50;5068866;28;20024;-67
2021/12/17 11:23:46;;;;;;;8.57;3.88;;;;;;;7.18;70.47;101529.25;5068477;28;20024;-67
2021/12/17 11:26:11;;;;;;;9.60;3.42;;;;;;;7.21;70.93;101511.28;5054217;28;20140;-67
2021/12/17 11:28:37;;;;;;;9.85;4.15;;;;;;;7.25;69.65;101506.63;5044474;28;20136;-66
2021/12/17 11:31:03;;;;;;;9.63;4.13;;;;;;;7.37;68.85;101508.59;5062873;28;20029;-67
2021/12/17 11:33:29;;;;;;;8.68;3.55;;;;;;;7.40;69.38;101503.97;5050898;28;20025;-66
2021/12/17 11:35:55;;;;;;;7.10;3.47;;;;;;;7.46;68.37;101505.44;5064429;28;20102;-66
2021/12/17 11:38:34;;;;;;;6.72;3.40;;;;;;;7.49;67.83;101505.25;5049326;28;20029;-66
2021/12/17 11:41:11;;;;;;;5.47;3.25;;;;;;;7.52;67.35;101505.97;5059491;28;20067;-66
2021/12/17 11:43:52;;;;;;;9.02;3.53;;;;;;;7.57;66.85;101503.00;5058131;28;20033;-66
2021/12/17 11:46:23;;;;;;;9.07;3.50;;;;;;;7.60;67.15;101509.03;5066525;28;20025;-66
2021/12/17 11:48:53;;;;;;;10.15;3.47;;;;;;;7.64;67.50;101517.75;5057801;28;20854;-67
2021/12/17 11:51:26;;;;;;;4.22;2.90;;;;;;;7.72;66.47;101510.16;5062645;28;20517;-67
2021/12/17 11:53:59;;;;;;;5.68;3.40;;;;;;;7.70;66.22;101509.41;5055292;28;20468;-66
2021/12/17 11:56:49;;;;;;;10.95;3.40;;;;;;;7.75;65.35;101501.97;5060468;28;20028;-66
2021/12/17 11:59:28;;;;;;;7.15;3.30;;;;;;;7.82;65.73;101495.31;5050680;28;20372;-66
2021/12/17 12:01:57;;;;;;;6.95;3.08;;;;;;;7.82;66.25;101500.66;5061073;28;20479;-66
2021/12/17 12:04:37;;;;;;;9.68;3.33;;;;;;;7.82;66.72;101490.84;5070194;28;20464;-66
2021/12/17 12:07:25;;;;;;;7.93;3.42;;;;;;;7.83;67.02;101484.56;5060807;28;20027;-65
2021/12/17 12:10:01;;;;;;;6.10;2.60;;;;;;;7.88;66.59;101497.66;5055580;28;20024;-65
2021/12/17 12:12:40;;;;;;;7.57;3.20;;;;;;;7.91;65.64;101497.47;5058020;28;20464;-65
2021/12/17 12:18:07;;;;;;;5.97;3.63;;;;;;;7.93;64.53;101498.25;5052480;28;20059;-65
2021/12/17 12:20:45;;;;;;;4.43;2.60;;;;;;;7.92;64.67;101494.72;5070264;28;20085;-65
2021/12/17 12:23:37;;;;;;;7.53;2.55;;;;;;;7.92;64.54;101494.72;5062187;28;20085;-65
2021/12/17 12:26:03;;;;;;;5.55;2.72;;;;;;;7.95;64.47;101491.84;5072234;28;20514;-65
2021/12/17 12:28:50;;;;;;;6.22;3.28;;;;;;;7.95;64.78;101489.19;5068636;28;20033;-65
2021/12/17 12:31:32;;;;;;;9.82;3.00;;;;;;;7.96;65.35;101493.56;5050773;28;20068;-67
2021/12/17 12:34:07;;;;;;;4.75;2.55;;;;;;;7.97;65.42;101481.94;5052154;28;20451;-65
2021/12/17 12:36:55;;;;;;;7.80;2.90;;;;;;;8.00;64.71;101483.59;5067635;28;20029;-65
2021/12/17 12:39:42;;;;;;;8.32;3.35;;;;;;;8.03;65.10;101486.91;5072007;28;20024;-66
2021/12/17 12:42:17;;;;;;;7.88;3.00;;;;;;;8.08;63.26;101483.97;5066412;28;20082;-65
2021/12/17 12:44:42;;;;;;;9.30;3.22;;;;;;;8.09;63.38;101483.88;5062181;28;20028;-65
2021/12/17 12:47:31;;;;;;;7.18;3.08;;;;;;;8.08;62.55;101482.19;5060068;28;20353;-65
2021/12/17 12:49:56;;;;;;;8.93;2.85;;;;;;;8.13;61.12;101490.75;5057599;28;20043;-65
2021/12/17 12:52:31;;;;;;;8.95;2.45;;;;;;;8.12;61.69;101493.53;5064363;28;20037;-65
2021/12/17 12:55:04;;;;;;;7.97;3.30;;;;;;;8.09;62.29;101491.06;5059447;28;20025;-66
2021/12/17 12:57:37;;;;;;;6.82;2.80;;;;;;;8.07;63.04;101487.59;5071137;28;20107;-66
2021/12/17 13:00:13;;;;;;;4.55;2.80;;;;;;;8.04;62.80;101479.78;5070260;28;20852;-66
2021/12/17 13:02:40;;;;;;;4.80;3.42;;;;;;;8.04;63.16;101477.09;5056745;28;20374;-66
2021/12/17 13:05:07;;;;;;;7.22;3.13;;;;;;;8.05;63.80;101477.00;5071602;28;20046;-66
2021/12/17 13:07:44;;;;;;;7.53;3.50;;;;;;;8.07;63.84;101474.25;5057399;28;20037;-66
2021/12/17 13:10:20;;;;;;;7.28;3.22;;;;;;;8.12;63.47;101466.81;5052041;28;20086;-66
2021/12/17 13:12:54;;;;;;;7.45;3.38;;;;;;;8.10;63.73;101479.41;5055670;28;20464;-66
2021/12/17 13:21:05;;;;;;;7.95;4.18;;;;;;;8.17;62.69;101478.09;5050111;28;20040;-66
2021/12/17 13:23:38;;;;;;;9.95;4.13;;;;;;;8.15;62.94;101471.97;5061606;28;20040;-66
2021/12/17 13:26:11;;;;;;;9.82;3.53;;;;;;;8.16;62.65;101468.38;5056993;28;20098;-65
2021/12/17 13:29:00;;;;;;;6.20;2.78;;;;;;;8.14;63.21;101475.59;5067177;28;20046;-66
2021/12/17 13:31:51;;;;;;;4.68;2.80;;;;;;;8.10;62.63;101471.41;5069720;28;20028;-66
2021/12/17 13:34:37;;;;;;;5.47;3.03;;;;;;;8.02;62.18;101474.50;5052788;28;20033;-66
2021/12/17 13:37:25;;;;;;;8.23;3.20;;;;;;;8.05;62.46;101473.47;5048634;28;20037;-66
2021/12/17 13:39:54;;;;;;;12.55;3.28;;;;;;;8.07;62.21;101479.59;5048461;28;20128;-66
2021/12/17 13:42:22;;;;;;;8.68;3.47;;;;;;;8.03;62.53;101476.22;5049683;28;20733;-66
2021/12/17 13:45:07;;;;;;;6.30;3.25;;;;;;;8.03;62.87;101480.72;5050650;28;20032;-66
2021/12/17 13:47:37;;;;;;;6.82;3.42;;;;;;;7.93;63.10;101459.03;5066499;28;20118;-66
2021/12/17 13:50:20;;;;;;;7.50;3.53;;;;;;;8.02;63.36;101482.53;5050623;28;20037;-66
2021/12/17 13:53:02;;;;;;;6.15;3.42;;;;;;;7.99;63.27;101489.84;5057093;28;20495;-66
2021/12/17 13:55:34;;;;;;;9.13;4.00;;;;;;;7.94;64.31;101489.28;5067819;28;20372;-66
2021/12/17 13:58:05;;;;;;;9.07;4.00;;;;;;;7.93;64.10;101479.56;5056277;28;20028;-66
2021/12/17 14:00:39;;;;;;;9.07;5.07;;;;;;;7.89;64.31;101488.66;5067813;28;20064;-67
2021/12/17 14:03:05;;;;;;;5.80;3.47;;;;;;;7.88;64.10;101493.16;5066395;28;20566;-66
2021/12/17 14:05:49;;;;;;;7.05;3.67;;;;;;;7.85;63.76;101489.81;5050572;28;20028;-66
2021/12/17 14:08:20;;;;;;;7.60;3.60;;;;;;;7.77;63.89;101497.41;5060937;28;20361;-66
2021/12/17 14:10:48;;;;;;;12.13;4.70;;;;;;;7.79;64.34;101506.19;5063278;28;20274;-67
2021/12/17 14:13:20;;;;;;;13.40;5.38;;;;;;;7.77;64.05;101503.59;5065925;28;20761;-66
2021/12/17 14:15:47;;;;;;;9.75;4.45;;;;;;;7.73;64.59;101488.72;5059411;28;20387;-67
2021/12/17 14:18:19;;;;;;;13.90;3.83;;;;;;;7.74;64.94;101497.59;5069955;28;20353;-66
2021/12/17 14:20:50;;;;;;;11.77;4.70;;;;;;;7.63;64.83;101487.50;5053439;28;20028;-66
2021/12/17 14:23:18;;;;;;;10.20;4.55;;;;;;;7.68;65.40;101492.59;5067561;28;20340;-66